sensor_id;sensor_type;location;lat;lon;timestamp;P1;durP1;ratioP1;P2;durP2;ratioP2
76194;SDS011;64964;48.694;21.206;2023-06-26T00:00:24;9.07;;;5.80;;
76194;SDS011;64964;48.694;21.206;2023-06-26T00:02:50;6.68;;;5.30;;
76194;SDS011;64964;48.694;21.206;2023-06-26T00:05:15;6.63;;;4.93;;
76194;SDS011;64964;48.694;21.206;2023-06-26T00:07:41;9.70;;;5.27;;
76194;SDS011;64964;48.694;21.206;2023-06-26T00:10:06;6.17;;;5.07;;
76194;SDS011;64964;48.694;21.206;2023-06-26T00:12:32;7.97;;;5.28;;
76194;SDS011;64964;48.694;21.206;2023-06-26T00:14:58;7.43;;;5.40;;
76194;SDS011;64964;48.694;21.206;2023-06-26T00:17:23;10.07;;;5.22;;
76194;SDS011;64964;48.694;21.206;2023-06-26T00:19:49;8.13;;;5.00;;
76194;SDS011;64964;48.694;21.206;2023-06-26T00:22:15;6.97;;;5.18;;
76194;SDS011;64964;48.694;21.206;2023-06-26T00:24:41;8.57;;;5.50;;
76194;SDS011;64964;48.694;21.206;2023-06-26T00:27:06;6.70;;;5.40;;
76194;SDS011;64964;48.694;21.206;2023-06-26T00:29:32;6.30;;;5.40;;
76194;SDS011;64964;48.694;21.206;2023-06-26T00:31:57;6.33;;;4.70;;
76194;SDS011;64964;48.694;21.206;2023-06-26T00:34:22;8.10;;;5.50;;
76194;SDS011;64964;48.694;21.206;2023-06-26T00:36:48;6.53;;;5.27;;
76194;SDS011;64964;48.694;21.206;2023-06-26T00:39:13;7.27;;;5.27;;
76194;SDS011;64964;48.694;21.206;2023-06-26T00:41:39;7.83;;;5.43;;
76194;SDS011;64964;48.694;21.206;2023-06-26T00:44:04;6.17;;;4.73;;
76194;SDS011;64964;48.694;21.206;2023-06-26T00:46:30;6.25;;;4.93;;
76194;SDS011;64964;48.694;21.206;2023-06-26T00:48:56;7.72;;;5.15;;
76194;SDS011;64964;48.694;21.206;2023-06-26T00:51:24;7.65;;;5.50;;
76194;SDS011;64964;48.694;21.206;2023-06-26T00:53:50;7.78;;;5.40;;
76194;SDS011;64964;48.694;21.206;2023-06-26T00:56:17;7.30;;;5.40;;
76194;SDS011;64964;48.694;21.206;2023-06-26T00:58:43;6.90;;;5.10;;
76194;SDS011;64964;48.694;21.206;2023-06-26T01:01:10;9.13;;;5.47;;
76194;SDS011;64964;48.694;21.206;2023-06-26T01:03:42;7.50;;;5.50;;
76194;SDS011;64964;48.694;21.206;2023-06-26T01:06:09;8.80;;;5.63;;
76194;SDS011;64964;48.694;21.206;2023-06-26T01:08:38;8.27;;;5.60;;
76194;SDS011;64964;48.694;21.206;2023-06-26T01:11:04;6.55;;;5.32;;
76194;SDS011;64964;48.694;21.206;2023-06-26T01:13:30;6.87;;;5.40;;
76194;SDS011;64964;48.694;21.206;2023-06-26T01:15:57;7.55;;;5.28;;
76194;SDS011;64964;48.694;21.206;2023-06-26T01:18:23;7.47;;;5.55;;
76194;SDS011;64964;48.694;21.206;2023-06-26T01:20:49;7.67;;;5.37;;
76194;SDS011;64964;48.694;21.206;2023-06-26T01:23:26;8.52;;;5.43;;
76194;SDS011;64964;48.694;21.206;2023-06-26T01:26:21;7.10;;;5.45;;
76194;SDS011;64964;48.694;21.206;2023-06-26T01:28:49;7.95;;;5.40;;
76194;SDS011;64964;48.694;21.206;2023-06-26T01:31:15;11.20;;;6.30;;
76194;SDS011;64964;48.694;21.206;2023-06-26T01:33:41;9.77;;;5.85;;
76194;SDS011;64964;48.694;21.206;2023-06-26T01:36:07;8.00;;;5.45;;
76194;SDS011;64964;48.694;21.206;2023-06-26T01:38:33;9.03;;;5.67;;
76194;SDS011;64964;48.694;21.206;2023-06-26T01:40:59;8.18;;;5.97;;
76194;SDS011;64964;48.694;21.206;2023-06-26T01:49:43;7.33;;;5.17;;
76194;SDS011;64964;48.694;21.206;2023-06-26T01:52:14;9.45;;;5.78;;
76194;SDS011;64964;48.694;21.206;2023-06-26T01:55:00;9.73;;;5.55;;
76194;SDS011;64964;48.694;21.206;2023-06-26T01:57:27;8.00;;;5.47;;
76194;SDS011;64964;48.694;21.206;2023-06-26T01:59:56;8.68;;;5.72;;
76194;SDS011;64964;48.694;21.206;2023-06-26T02:02:24;7.50;;;5.33;;
76194;SDS011;64964;48.694;21.206;2023-06-26T02:04:49;7.88;;;5.50;;
76194;SDS011;64964;48.694;21.206;2023-06-26T02:07:15;7.77;;;5.20;;
76194;SDS011;64964;48.694;21.206;2023-06-26T02:09:40;11.13;;;5.50;;
76194;SDS011;64964;48.694;21.206;2023-06-26T02:12:06;7.83;;;5.77;;
76194;SDS011;64964;48.694;21.206;2023-06-26T02:14:32;9.13;;;5.90;;
76194;SDS011;64964;48.694;21.206;2023-06-26T02:16:57;9.37;;;5.67;;
76194;SDS011;64964;48.694;21.206;2023-06-26T02:19:22;10.57;;;5.97;;
76194;SDS011;64964;48.694;21.206;2023-06-26T02:21:48;8.23;;;5.63;;
76194;SDS011;64964;48.694;21.206;2023-06-26T02:24:14;9.63;;;5.83;;
76194;SDS011;64964;48.694;21.206;2023-06-26T02:26:40;8.15;;;5.82;;
76194;SDS011;64964;48.694;21.206;2023-06-26T02:29:05;7.83;;;5.73;;
76194;SDS011;64964;48.694;21.206;2023-06-26T02:31:31;8.27;;;5.60;;
76194;SDS011;64964;48.694;21.206;2023-06-26T02:33:56;8.32;;;5.40;;
76194;SDS011;64964;48.694;21.206;2023-06-26T02:36:21;9.30;;;5.60;;
76194;SDS011;64964;48.694;21.206;2023-06-26T02:38:47;6.40;;;5.17;;
76194;SDS011;64964;48.694;21.206;2023-06-26T02:41:12;9.20;;;6.07;;
76194;SDS011;64964;48.694;21.206;2023-06-26T02:43:37;7.00;;;5.43;;
76194;SDS011;64964;48.694;21.206;2023-06-26T02:46:03;7.90;;;5.87;;
76194;SDS011;64964;48.694;21.206;2023-06-26T02:48:28;8.27;;;5.50;;
76194;SDS011;64964;48.694;21.206;2023-06-26T02:50:54;6.97;;;5.77;;
76194;SDS011;64964;48.694;21.206;2023-06-26T02:53:19;8.60;;;5.67;;
76194;SDS011;64964;48.694;21.206;2023-06-26T02:55:44;7.60;;;5.50;;
76194;SDS011;64964;48.694;21.206;2023-06-26T02:58:12;7.40;;;5.45;;
76194;SDS011;64964;48.694;21.206;2023-06-26T03:00:37;8.80;;;5.43;;
76194;SDS011;64964;48.694;21.206;2023-06-26T03:03:06;9.85;;;5.80;;
76194;SDS011;64964;48.694;21.206;2023-06-26T03:05:32;7.67;;;5.67;;
76194;SDS011;64964;48.694;21.206;2023-06-26T03:07:57;9.57;;;6.20;;
76194;SDS011;64964;48.694;21.206;2023-06-26T03:10:22;8.90;;;6.00;;
76194;SDS011;64964;48.694;21.206;2023-06-26T03:12:48;9.20;;;5.67;;
76194;SDS011;64964;48.694;21.206;2023-06-26T03:15:13;9.47;;;5.83;;
76194;SDS011;64964;48.694;21.206;2023-06-26T03:17:39;8.67;;;5.73;;
76194;SDS011;64964;48.694;21.206;2023-06-26T03:20:04;7.72;;;5.72;;
76194;SDS011;64964;48.694;21.206;2023-06-26T03:22:32;9.10;;;5.73;;
76194;SDS011;64964;48.694;21.206;2023-06-26T03:24:58;7.35;;;5.35;;
76194;SDS011;64964;48.694;21.206;2023-06-26T03:27:23;6.67;;;5.33;;
76194;SDS011;64964;48.694;21.206;2023-06-26T03:29:48;8.18;;;6.05;;
76194;SDS011;64964;48.694;21.206;2023-06-26T03:32:14;9.17;;;5.63;;
76194;SDS011;64964;48.694;21.206;2023-06-26T03:34:39;8.67;;;5.93;;
76194;SDS011;64964;48.694;21.206;2023-06-26T03:37:04;9.73;;;6.20;;
76194;SDS011;64964;48.694;21.206;2023-06-26T03:39:30;7.88;;;5.78;;
76194;SDS011;64964;48.694;21.206;2023-06-26T03:41:55;7.53;;;5.77;;
76194;SDS011;64964;48.694;21.206;2023-06-26T03:44:25;7.45;;;6.05;;
76194;SDS011;64964;48.694;21.206;2023-06-26T03:46:50;9.73;;;5.30;;
76194;SDS011;64964;48.694;21.206;2023-06-26T03:49:16;11.20;;;6.17;;
76194;SDS011;64964;48.694;21.206;2023-06-26T03:51:42;10.10;;;6.20;;
76194;SDS011;64964;48.694;21.206;2023-06-26T03:54:07;7.60;;;5.60;;
76194;SDS011;64964;48.694;21.206;2023-06-26T03:56:33;7.93;;;5.90;;
76194;SDS011;64964;48.694;21.206;2023-06-26T03:58:58;8.47;;;5.67;;
76194;SDS011;64964;48.694;21.206;2023-06-26T04:01:24;7.90;;;5.83;;
76194;SDS011;64964;48.694;21.206;2023-06-26T04:03:49;7.47;;;5.70;;
76194;SDS011;64964;48.694;21.206;2023-06-26T04:06:15;7.53;;;5.83;;
76194;SDS011;64964;48.694;21.206;2023-06-26T04:08:40;8.10;;;5.87;;
76194;SDS011;64964;48.694;21.206;2023-06-26T04:11:05;6.20;;;5.40;;
76194;SDS011;64964;48.694;21.206;2023-06-26T04:13:31;7.90;;;5.72;;
76194;SDS011;64964;48.694;21.206;2023-06-26T04:15:56;8.47;;;6.00;;
76194;SDS011;64964;48.694;21.206;2023-06-26T04:18:22;8.90;;;5.50;;
76194;SDS011;64964;48.694;21.206;2023-06-26T04:23:42;7.55;;;5.35;;
76194;SDS011;64964;48.694;21.206;2023-06-26T04:26:07;7.30;;;5.60;;
76194;SDS011;64964;48.694;21.206;2023-06-26T04:28:34;9.60;;;6.15;;
76194;SDS011;64964;48.694;21.206;2023-06-26T04:31:00;7.90;;;5.70;;
76194;SDS011;64964;48.694;21.206;2023-06-26T04:33:26;9.50;;;5.60;;
76194;SDS011;64964;48.694;21.206;2023-06-26T04:35:52;8.80;;;6.05;;
76194;SDS011;64964;48.694;21.206;2023-06-26T04:38:18;8.10;;;5.63;;
76194;SDS011;64964;48.694;21.206;2023-06-26T04:40:44;9.27;;;6.13;;
76194;SDS011;64964;48.694;21.206;2023-06-26T04:43:10;8.70;;;6.10;;
76194;SDS011;64964;48.694;21.206;2023-06-26T04:45:35;7.40;;;5.70;;
76194;SDS011;64964;48.694;21.206;2023-06-26T04:48:01;9.73;;;5.90;;
76194;SDS011;64964;48.694;21.206;2023-06-26T04:50:27;7.87;;;5.60;;
76194;SDS011;64964;48.694;21.206;2023-06-26T04:52:54;7.35;;;5.63;;
76194;SDS011;64964;48.694;21.206;2023-06-26T04:55:20;8.23;;;5.80;;
76194;SDS011;64964;48.694;21.206;2023-06-26T04:57:46;6.80;;;5.00;;
76194;SDS011;64964;48.694;21.206;2023-06-26T05:00:12;8.47;;;5.80;;
76194;SDS011;64964;48.694;21.206;2023-06-26T05:02:38;7.82;;;5.25;;
76194;SDS011;64964;48.694;21.206;2023-06-26T05:05:04;10.03;;;5.20;;
76194;SDS011;64964;48.694;21.206;2023-06-26T05:07:29;8.30;;;5.43;;
76194;SDS011;64964;48.694;21.206;2023-06-26T05:09:54;6.90;;;5.40;;
76194;SDS011;64964;48.694;21.206;2023-06-26T05:12:20;9.20;;;5.20;;
76194;SDS011;64964;48.694;21.206;2023-06-26T05:14:45;7.60;;;5.17;;
76194;SDS011;64964;48.694;21.206;2023-06-26T05:17:13;9.30;;;5.57;;
76194;SDS011;64964;48.694;21.206;2023-06-26T05:19:38;7.55;;;5.25;;
76194;SDS011;64964;48.694;21.206;2023-06-26T05:22:04;9.07;;;5.33;;
76194;SDS011;64964;48.694;21.206;2023-06-26T05:24:32;6.38;;;5.20;;
76194;SDS011;64964;48.694;21.206;2023-06-26T05:27:02;8.85;;;5.53;;
76194;SDS011;64964;48.694;21.206;2023-06-26T05:29:28;7.63;;;5.17;;
76194;SDS011;64964;48.694;21.206;2023-06-26T05:31:55;7.55;;;5.22;;
76194;SDS011;64964;48.694;21.206;2023-06-26T05:34:22;7.18;;;5.13;;
76194;SDS011;64964;48.694;21.206;2023-06-26T05:36:49;7.75;;;5.32;;
76194;SDS011;64964;48.694;21.206;2023-06-26T05:39:16;6.28;;;4.72;;
76194;SDS011;64964;48.694;21.206;2023-06-26T05:41:43;8.30;;;5.07;;
76194;SDS011;64964;48.694;21.206;2023-06-26T05:44:09;10.80;;;5.40;;
76194;SDS011;64964;48.694;21.206;2023-06-26T05:46:35;7.45;;;5.40;;
76194;SDS011;64964;48.694;21.206;2023-06-26T05:49:00;7.03;;;5.37;;
76194;SDS011;64964;48.694;21.206;2023-06-26T05:51:26;7.28;;;5.03;;
76194;SDS011;64964;48.694;21.206;2023-06-26T05:53:52;7.78;;;5.75;;
76194;SDS011;64964;48.694;21.206;2023-06-26T05:56:18;8.97;;;5.67;;
76194;SDS011;64964;48.694;21.206;2023-06-26T05:58:44;7.80;;;5.57;;
76194;SDS011;64964;48.694;21.206;2023-06-26T06:01:10;6.55;;;5.05;;
76194;SDS011;64964;48.694;21.206;2023-06-26T06:03:35;7.00;;;5.10;;
76194;SDS011;64964;48.694;21.206;2023-06-26T06:06:01;7.03;;;5.13;;
76194;SDS011;64964;48.694;21.206;2023-06-26T06:08:26;7.33;;;5.13;;
76194;SDS011;64964;48.694;21.206;2023-06-26T06:10:51;6.63;;;5.10;;
76194;SDS011;64964;48.694;21.206;2023-06-26T06:13:17;6.00;;;4.90;;
76194;SDS011;64964;48.694;21.206;2023-06-26T06:15:43;7.47;;;5.43;;
76194;SDS011;64964;48.694;21.206;2023-06-26T06:18:08;8.40;;;5.23;;
76194;SDS011;64964;48.694;21.206;2023-06-26T06:20:34;6.97;;;5.37;;
76194;SDS011;64964;48.694;21.206;2023-06-26T06:23:00;8.40;;;5.32;;
76194;SDS011;64964;48.694;21.206;2023-06-26T06:25:25;7.33;;;5.10;;
76194;SDS011;64964;48.694;21.206;2023-06-26T06:27:51;8.07;;;5.03;;
76194;SDS011;64964;48.694;21.206;2023-06-26T06:30:16;6.63;;;5.37;;
76194;SDS011;64964;48.694;21.206;2023-06-26T06:32:41;8.07;;;5.30;;
76194;SDS011;64964;48.694;21.206;2023-06-26T06:35:07;7.00;;;5.00;;
76194;SDS011;64964;48.694;21.206;2023-06-26T06:37:35;6.82;;;5.10;;
76194;SDS011;64964;48.694;21.206;2023-06-26T06:40:01;8.95;;;5.28;;
76194;SDS011;64964;48.694;21.206;2023-06-26T06:42:28;6.82;;;5.20;;
76194;SDS011;64964;48.694;21.206;2023-06-26T06:44:54;6.93;;;5.27;;
76194;SDS011;64964;48.694;21.206;2023-06-26T06:47:19;8.63;;;5.40;;
76194;SDS011;64964;48.694;21.206;2023-06-26T06:49:44;7.77;;;5.00;;
76194;SDS011;64964;48.694;21.206;2023-06-26T06:52:10;5.87;;;5.27;;
76194;SDS011;64964;48.694;21.206;2023-06-26T06:54:50;6.50;;;4.90;;
76194;SDS011;64964;48.694;21.206;2023-06-26T06:57:24;7.63;;;5.17;;
76194;SDS011;64964;48.694;21.206;2023-06-26T06:59:50;6.33;;;4.93;;
76194;SDS011;64964;48.694;21.206;2023-06-26T07:02:18;6.60;;;4.95;;
76194;SDS011;64964;48.694;21.206;2023-06-26T07:04:44;6.70;;;5.15;;
76194;SDS011;64964;48.694;21.206;2023-06-26T07:07:09;6.43;;;5.30;;
76194;SDS011;64964;48.694;21.206;2023-06-26T07:09:35;6.97;;;5.27;;
76194;SDS011;64964;48.694;21.206;2023-06-26T07:12:01;8.98;;;5.10;;
76194;SDS011;64964;48.694;21.206;2023-06-26T07:14:27;8.05;;;5.45;;
76194;SDS011;64964;48.694;21.206;2023-06-26T07:16:53;9.10;;;5.10;;
76194;SDS011;64964;48.694;21.206;2023-06-26T07:19:18;7.47;;;4.77;;
76194;SDS011;64964;48.694;21.206;2023-06-26T07:21:43;6.80;;;5.07;;
76194;SDS011;64964;48.694;21.206;2023-06-26T07:24:09;7.70;;;4.67;;
76194;SDS011;64964;48.694;21.206;2023-06-26T07:26:35;7.95;;;5.03;;
76194;SDS011;64964;48.694;21.206;2023-06-26T07:29:01;8.27;;;5.38;;
76194;SDS011;64964;48.694;21.206;2023-06-26T07:31:26;7.10;;;5.10;;
76194;SDS011;64964;48.694;21.206;2023-06-26T07:33:52;7.50;;;5.40;;
76194;SDS011;64964;48.694;21.206;2023-06-26T07:36:17;8.77;;;5.60;;
76194;SDS011;64964;48.694;21.206;2023-06-26T07:38:42;7.53;;;5.10;;
76194;SDS011;64964;48.694;21.206;2023-06-26T07:41:08;7.77;;;5.40;;
76194;SDS011;64964;48.694;21.206;2023-06-26T07:43:33;8.20;;;5.13;;
76194;SDS011;64964;48.694;21.206;2023-06-26T07:45:58;8.30;;;5.33;;
76194;SDS011;64964;48.694;21.206;2023-06-26T07:48:24;7.10;;;5.27;;
76194;SDS011;64964;48.694;21.206;2023-06-26T07:50:50;7.85;;;5.07;;
76194;SDS011;64964;48.694;21.206;2023-06-26T07:53:15;6.53;;;4.88;;
76194;SDS011;64964;48.694;21.206;2023-06-26T07:55:41;7.93;;;4.83;;
76194;SDS011;64964;48.694;21.206;2023-06-26T07:58:07;6.10;;;5.00;;
76194;SDS011;64964;48.694;21.206;2023-06-26T08:00:33;6.82;;;4.63;;
76194;SDS011;64964;48.694;21.206;2023-06-26T08:02:58;7.67;;;4.90;;
76194;SDS011;64964;48.694;21.206;2023-06-26T08:05:24;6.20;;;4.70;;
76194;SDS011;64964;48.694;21.206;2023-06-26T08:07:49;7.03;;;4.73;;
76194;SDS011;64964;48.694;21.206;2023-06-26T08:10:14;6.83;;;4.50;;
76194;SDS011;64964;48.694;21.206;2023-06-26T08:12:40;6.87;;;4.50;;
76194;SDS011;64964;48.694;21.206;2023-06-26T08:15:07;8.27;;;4.70;;
76194;SDS011;64964;48.694;21.206;2023-06-26T08:17:34;6.13;;;4.35;;
76194;SDS011;64964;48.694;21.206;2023-06-26T08:20:01;6.35;;;4.40;;
76194;SDS011;64964;48.694;21.206;2023-06-26T08:22:26;7.20;;;5.00;;
76194;SDS011;64964;48.694;21.206;2023-06-26T08:24:51;5.75;;;4.60;;
76194;SDS011;64964;48.694;21.206;2023-06-26T08:27:17;4.90;;;4.40;;
76194;SDS011;64964;48.694;21.206;2023-06-26T08:29:42;5.90;;;4.57;;
76194;SDS011;64964;48.694;21.206;2023-06-26T08:32:07;6.30;;;4.27;;
76194;SDS011;64964;48.694;21.206;2023-06-26T08:34:33;5.17;;;4.67;;
76194;SDS011;64964;48.694;21.206;2023-06-26T08:36:58;7.68;;;4.80;;
76194;SDS011;64964;48.694;21.206;2023-06-26T08:39:24;5.23;;;4.30;;
76194;SDS011;64964;48.694;21.206;2023-06-26T08:41:49;6.30;;;4.50;;
76194;SDS011;64964;48.694;21.206;2023-06-26T08:44:15;6.60;;;4.80;;
76194;SDS011;64964;48.694;21.206;2023-06-26T08:46:40;7.17;;;4.27;;
76194;SDS011;64964;48.694;21.206;2023-06-26T08:49:13;6.82;;;4.60;;
76194;SDS011;64964;48.694;21.206;2023-06-26T08:51:43;9.77;;;4.90;;
76194;SDS011;64964;48.694;21.206;2023-06-26T08:54:14;6.88;;;4.70;;
76194;SDS011;64964;48.694;21.206;2023-06-26T08:56:42;4.97;;;4.45;;
76194;SDS011;64964;48.694;21.206;2023-06-26T08:59:11;6.10;;;4.50;;
76194;SDS011;64964;48.694;21.206;2023-06-26T09:01:39;6.45;;;4.70;;
76194;SDS011;64964;48.694;21.206;2023-06-26T09:04:06;6.32;;;4.60;;
76194;SDS011;64964;48.694;21.206;2023-06-26T09:06:32;7.50;;;4.43;;
76194;SDS011;64964;48.694;21.206;2023-06-26T09:08:58;6.60;;;4.83;;
76194;SDS011;64964;48.694;21.206;2023-06-26T09:11:23;6.05;;;4.55;;
76194;SDS011;64964;48.694;21.206;2023-06-26T09:13:48;5.77;;;4.70;;
76194;SDS011;64964;48.694;21.206;2023-06-26T09:16:15;9.43;;;4.85;;
76194;SDS011;64964;48.694;21.206;2023-06-26T09:18:40;8.23;;;4.90;;
76194;SDS011;64964;48.694;21.206;2023-06-26T09:21:07;6.18;;;4.80;;
76194;SDS011;64964;48.694;21.206;2023-06-26T09:23:33;7.22;;;4.65;;
76194;SDS011;64964;48.694;21.206;2023-06-26T09:26:01;6.40;;;4.50;;
76194;SDS011;64964;48.694;21.206;2023-06-26T09:28:28;5.93;;;4.43;;
76194;SDS011;64964;48.694;21.206;2023-06-26T09:30:53;5.77;;;4.50;;
76194;SDS011;64964;48.694;21.206;2023-06-26T09:33:19;6.10;;;4.50;;
76194;SDS011;64964;48.694;21.206;2023-06-26T09:35:45;6.32;;;4.85;;
76194;SDS011;64964;48.694;21.206;2023-06-26T09:38:12;5.72;;;4.57;;
76194;SDS011;64964;48.694;21.206;2023-06-26T09:40:38;5.38;;;4.60;;
76194;SDS011;64964;48.694;21.206;2023-06-26T09:43:04;5.43;;;4.20;;
76194;SDS011;64964;48.694;21.206;2023-06-26T09:45:32;6.72;;;4.60;;
76194;SDS011;64964;48.694;21.206;2023-06-26T09:48:01;6.22;;;4.68;;
76194;SDS011;64964;48.694;21.206;2023-06-26T09:50:29;5.47;;;4.23;;
76194;SDS011;64964;48.694;21.206;2023-06-26T09:52:58;5.30;;;4.60;;
76194;SDS011;64964;48.694;21.206;2023-06-26T09:55:25;5.53;;;4.40;;
76194;SDS011;64964;48.694;21.206;2023-06-26T09:57:51;5.47;;;4.40;;
76194;SDS011;64964;48.694;21.206;2023-06-26T10:00:17;5.77;;;4.27;;
76194;SDS011;64964;48.694;21.206;2023-06-26T10:02:43;5.05;;;4.55;;
76194;SDS011;64964;48.694;21.206;2023-06-26T10:05:09;5.68;;;4.60;;
76194;SDS011;64964;48.694;21.206;2023-06-26T10:07:35;5.15;;;4.32;;
76194;SDS011;64964;48.694;21.206;2023-06-26T10:10:02;5.47;;;4.30;;
76194;SDS011;64964;48.694;21.206;2023-06-26T10:12:30;5.83;;;4.77;;
76194;SDS011;64964;48.694;21.206;2023-06-26T10:14:56;8.10;;;4.60;;
76194;SDS011;64964;48.694;21.206;2023-06-26T10:17:23;5.65;;;4.30;;
76194;SDS011;64964;48.694;21.206;2023-06-26T10:19:50;6.63;;;4.97;;
76194;SDS011;64964;48.694;21.206;2023-06-26T10:22:19;5.35;;;4.85;;
76194;SDS011;64964;48.694;21.206;2023-06-26T10:24:49;5.95;;;4.28;;
76194;SDS011;64964;48.694;21.206;2023-06-26T10:27:20;4.93;;;4.43;;
76194;SDS011;64964;48.694;21.206;2023-06-26T10:29:59;5.45;;;4.63;;
76194;SDS011;64964;48.694;21.206;2023-06-26T10:32:29;4.85;;;4.35;;
76194;SDS011;64964;48.694;21.206;2023-06-26T10:34:55;5.50;;;4.17;;
76194;SDS011;64964;48.694;21.206;2023-06-26T10:37:33;5.68;;;4.50;;
76194;SDS011;64964;48.694;21.206;2023-06-26T10:40:06;5.50;;;4.57;;
76194;SDS011;64964;48.694;21.206;2023-06-26T10:42:36;4.95;;;4.45;;
76194;SDS011;64964;48.694;21.206;2023-06-26T10:45:15;6.15;;;4.10;;
76194;SDS011;64964;48.694;21.206;2023-06-26T10:47:47;5.45;;;4.57;;
76194;SDS011;64964;48.694;21.206;2023-06-26T10:53:08;7.95;;;4.50;;
76194;SDS011;64964;48.694;21.206;2023-06-26T10:55:47;6.50;;;4.33;;
76194;SDS011;64964;48.694;21.206;2023-06-26T10:58:27;7.43;;;4.17;;
76194;SDS011;64964;48.694;21.206;2023-06-26T11:03:36;5.63;;;4.60;;
76194;SDS011;64964;48.694;21.206;2023-06-26T11:06:11;7.75;;;4.55;;
76194;SDS011;64964;48.694;21.206;2023-06-26T11:08:44;5.70;;;4.20;;
76194;SDS011;64964;48.694;21.206;2023-06-26T11:11:10;5.18;;;4.63;;
76194;SDS011;64964;48.694;21.206;2023-06-26T11:13:36;6.23;;;4.37;;
76194;SDS011;64964;48.694;21.206;2023-06-26T11:16:02;6.10;;;4.30;;
76194;SDS011;64964;48.694;21.206;2023-06-26T11:18:28;4.78;;;4.15;;
76194;SDS011;64964;48.694;21.206;2023-06-26T11:20:54;5.97;;;4.47;;
76194;SDS011;64964;48.694;21.206;2023-06-26T11:23:30;5.20;;;4.63;;
76194;SDS011;64964;48.694;21.206;2023-06-26T11:26:12;5.28;;;4.20;;
76194;SDS011;64964;48.694;21.206;2023-06-26T11:28:51;5.60;;;4.60;;
76194;SDS011;64964;48.694;21.206;2023-06-26T11:31:32;7.27;;;4.23;;
76194;SDS011;64964;48.694;21.206;2023-06-26T11:33:59;5.18;;;4.28;;
76194;SDS011;64964;48.694;21.206;2023-06-26T11:36:26;5.45;;;3.95;;
76194;SDS011;64964;48.694;21.206;2023-06-26T11:38:55;7.28;;;4.70;;
76194;SDS011;64964;48.694;21.206;2023-06-26T11:41:26;7.28;;;4.32;;
76194;SDS011;64964;48.694;21.206;2023-06-26T11:43:53;5.05;;;4.00;;
76194;SDS011;64964;48.694;21.206;2023-06-26T11:46:20;5.15;;;4.40;;
76194;SDS011;64964;48.694;21.206;2023-06-26T11:48:46;5.78;;;4.40;;
76194;SDS011;64964;48.694;21.206;2023-06-26T11:51:13;5.20;;;4.30;;
76194;SDS011;64964;48.694;21.206;2023-06-26T11:53:40;5.70;;;4.40;;
76194;SDS011;64964;48.694;21.206;2023-06-26T11:56:10;7.83;;;4.27;;
76194;SDS011;64964;48.694;21.206;2023-06-26T12:01:26;6.05;;;4.57;;
76194;SDS011;64964;48.694;21.206;2023-06-26T12:03:58;5.57;;;4.50;;
76194;SDS011;64964;48.694;21.206;2023-06-26T12:06:26;7.00;;;4.18;;
76194;SDS011;64964;48.694;21.206;2023-06-26T12:08:53;4.90;;;4.10;;
76194;SDS011;64964;48.694;21.206;2023-06-26T12:11:19;5.40;;;4.32;;
76194;SDS011;64964;48.694;21.206;2023-06-26T12:13:48;4.97;;;4.30;;
76194;SDS011;64964;48.694;21.206;2023-06-26T12:16:14;5.78;;;4.38;;
76194;SDS011;64964;48.694;21.206;2023-06-26T12:18:40;6.00;;;4.20;;
76194;SDS011;64964;48.694;21.206;2023-06-26T12:21:06;5.93;;;4.20;;
76194;SDS011;64964;48.694;21.206;2023-06-26T12:23:39;5.18;;;4.60;;
76194;SDS011;64964;48.694;21.206;2023-06-26T12:26:17;5.77;;;4.40;;
76194;SDS011;64964;48.694;21.206;2023-06-26T12:28:46;6.30;;;4.40;;
76194;SDS011;64964;48.694;21.206;2023-06-26T12:31:15;6.65;;;4.50;;
76194;SDS011;64964;48.694;21.206;2023-06-26T12:33:42;6.78;;;4.57;;
76194;SDS011;64964;48.694;21.206;2023-06-26T12:36:12;7.30;;;4.97;;
76194;SDS011;64964;48.694;21.206;2023-06-26T12:38:38;5.53;;;4.45;;
76194;SDS011;64964;48.694;21.206;2023-06-26T12:41:04;6.22;;;4.60;;
76194;SDS011;64964;48.694;21.206;2023-06-26T12:43:29;5.90;;;4.60;;
76194;SDS011;64964;48.694;21.206;2023-06-26T12:45:55;6.57;;;4.53;;
76194;SDS011;64964;48.694;21.206;2023-06-26T12:48:42;5.55;;;4.47;;
76194;SDS011;64964;48.694;21.206;2023-06-26T12:51:11;5.75;;;4.47;;
76194;SDS011;64964;48.694;21.206;2023-06-26T12:53:37;5.43;;;4.78;;
76194;SDS011;64964;48.694;21.206;2023-06-26T12:56:06;7.82;;;4.63;;
76194;SDS011;64964;48.694;21.206;2023-06-26T12:58:33;7.60;;;4.80;;
76194;SDS011;64964;48.694;21.206;2023-06-26T13:00:59;8.13;;;4.80;;
76194;SDS011;64964;48.694;21.206;2023-06-26T13:03:25;6.20;;;4.77;;
76194;SDS011;64964;48.694;21.206;2023-06-26T13:05:50;5.47;;;4.67;;
76194;SDS011;64964;48.694;21.206;2023-06-26T13:08:16;6.30;;;4.93;;
76194;SDS011;64964;48.694;21.206;2023-06-26T13:10:43;6.38;;;4.50;;
76194;SDS011;64964;48.694;21.206;2023-06-26T13:13:12;5.07;;;4.53;;
76194;SDS011;64964;48.694;21.206;2023-06-26T13:15:37;6.43;;;4.55;;
76194;SDS011;64964;48.694;21.206;2023-06-26T13:18:03;6.17;;;4.70;;
76194;SDS011;64964;48.694;21.206;2023-06-26T13:20:28;5.50;;;4.60;;
76194;SDS011;64964;48.694;21.206;2023-06-26T13:22:54;6.60;;;4.60;;
76194;SDS011;64964;48.694;21.206;2023-06-26T13:25:20;6.65;;;4.53;;
76194;SDS011;64964;48.694;21.206;2023-06-26T13:27:46;7.20;;;4.78;;
76194;SDS011;64964;48.694;21.206;2023-06-26T13:30:12;5.38;;;4.20;;
76194;SDS011;64964;48.694;21.206;2023-06-26T13:32:39;6.37;;;4.13;;
76194;SDS011;64964;48.694;21.206;2023-06-26T13:35:04;6.97;;;4.50;;
76194;SDS011;64964;48.694;21.206;2023-06-26T13:37:31;10.93;;;4.10;;
76194;SDS011;64964;48.694;21.206;2023-06-26T13:39:56;5.37;;;4.57;;
76194;SDS011;64964;48.694;21.206;2023-06-26T13:59:48;5.70;;;4.75;;
76194;SDS011;64964;48.694;21.206;2023-06-26T14:02:14;6.40;;;4.90;;
76194;SDS011;64964;48.694;21.206;2023-06-26T14:04:39;6.95;;;5.05;;
76194;SDS011;64964;48.694;21.206;2023-06-26T14:07:05;7.37;;;4.50;;
76194;SDS011;64964;48.694;21.206;2023-06-26T14:09:31;6.63;;;4.88;;
76194;SDS011;64964;48.694;21.206;2023-06-26T14:11:56;5.50;;;4.50;;
76194;SDS011;64964;48.694;21.206;2023-06-26T14:14:24;6.00;;;4.60;;
76194;SDS011;64964;48.694;21.206;2023-06-26T14:16:49;6.00;;;4.57;;
76194;SDS011;64964;48.694;21.206;2023-06-26T14:19:14;6.00;;;4.70;;
76194;SDS011;64964;48.694;21.206;2023-06-26T14:21:42;6.13;;;4.40;;
76194;SDS011;64964;48.694;21.206;2023-06-26T14:24:08;7.00;;;4.60;;
76194;SDS011;64964;48.694;21.206;2023-06-26T14:26:33;6.37;;;4.60;;
76194;SDS011;64964;48.694;21.206;2023-06-26T14:28:59;5.30;;;4.53;;
76194;SDS011;64964;48.694;21.206;2023-06-26T14:31:25;5.53;;;4.60;;
76194;SDS011;64964;48.694;21.206;2023-06-26T14:33:50;5.88;;;4.72;;
76194;SDS011;64964;48.694;21.206;2023-06-26T14:36:16;5.30;;;4.70;;
76194;SDS011;64964;48.694;21.206;2023-06-26T14:38:41;6.83;;;4.93;;
76194;SDS011;64964;48.694;21.206;2023-06-26T14:41:06;5.50;;;5.00;;
76194;SDS011;64964;48.694;21.206;2023-06-26T14:43:32;6.57;;;4.53;;
76194;SDS011;64964;48.694;21.206;2023-06-26T14:45:57;5.50;;;4.93;;
76194;SDS011;64964;48.694;21.206;2023-06-26T14:48:22;5.03;;;4.53;;
76194;SDS011;64964;48.694;21.206;2023-06-26T14:50:48;6.60;;;4.63;;
76194;SDS011;64964;48.694;21.206;2023-06-26T14:53:13;8.57;;;4.87;;
76194;SDS011;64964;48.694;21.206;2023-06-26T14:55:39;6.47;;;4.87;;
76194;SDS011;64964;48.694;21.206;2023-06-26T14:58:04;7.50;;;5.20;;
76194;SDS011;64964;48.694;21.206;2023-06-26T15:00:29;6.93;;;5.07;;
76194;SDS011;64964;48.694;21.206;2023-06-26T15:02:55;7.77;;;5.00;;
76194;SDS011;64964;48.694;21.206;2023-06-26T15:05:23;10.30;;;5.20;;